createdAt,value
2022-12-01T00:00:27.337Z,6.90
2022-12-01T00:02:53.775Z,6.07
2022-12-01T00:05:20.457Z,6.65
2022-12-01T00:07:48.497Z,6.05
2022-12-01T00:10:26.658Z,6.43
2022-12-01T00:12:53.316Z,6.35
2022-12-01T00:15:20.139Z,5.85
2022-12-01T00:17:47.686Z,6.03
2022-12-01T00:20:14.722Z,5.80
2022-12-01T00:22:44.751Z,5.68
2022-12-01T00:25:11.545Z,6.35
2022-12-01T00:27:37.929Z,5.55
2022-12-01T00:30:06.882Z,5.90
2022-12-01T00:32:33.307Z,4.82
2022-12-01T00:34:59.635Z,5.50
2022-12-01T00:37:26.053Z,5.38
2022-12-01T00:39:52.537Z,4.88
2022-12-01T00:42:20.795Z,5.78
2022-12-01T00:44:47.722Z,5.40
2022-12-01T00:47:14.307Z,5.53
2022-12-01T00:49:40.881Z,5.72
2022-12-01T00:52:07.249Z,5.30
2022-12-01T00:54:33.627Z,5.55
2022-12-01T00:57:00.228Z,5.72
2022-12-01T00:59:26.587Z,5.97
2022-12-01T01:01:53.080Z,6.60
2022-12-01T01:04:19.532Z,6.07
2022-12-01T01:06:46.137Z,5.90
2022-12-01T01:09:13.142Z,6.40
2022-12-01T01:11:39.605Z,6.30
2022-12-01T01:14:06.678Z,5.88
2022-12-01T01:16:33.702Z,6.03
2022-12-01T01:19:00.461Z,5.82
2022-12-01T01:21:26.979Z,6.18
2022-12-01T01:23:53.893Z,5.93
2022-12-01T01:26:30.562Z,5.57
2022-12-01T01:28:58.125Z,5.68
2022-12-01T01:31:25.422Z,5.82
2022-12-01T01:33:52.104Z,5.47
2022-12-01T01:36:19.126Z,6.60
2022-12-01T01:38:46.157Z,5.40
2022-12-01T01:41:12.537Z,5.85
2022-12-01T01:43:46.570Z,5.03
2022-12-01T01:46:33.407Z,5.28
2022-12-01T01:49:01.447Z,5.15
2022-12-01T01:51:36.763Z,5.18
2022-12-01T01:54:06.150Z,6.28
2022-12-01T01:56:34.844Z,4.85
2022-12-01T01:59:01.188Z,4.68
2022-12-01T02:01:27.754Z,5.28
2022-12-01T02:03:54.978Z,5.18
2022-12-01T02:06:22.637Z,4.90
2022-12-01T02:08:49.048Z,4.93
2022-12-01T02:11:18.265Z,4.63
2022-12-01T02:13:47.658Z,4.85
2022-12-01T02:16:14.013Z,4.75
2022-12-01T02:18:55.748Z,4.30
2022-12-01T02:21:40.403Z,4.45
2022-12-01T02:24:12.751Z,5.03
2022-12-01T02:26:49.629Z,4.07
2022-12-01T02:29:34.695Z,3.72
2022-12-01T02:32:04.055Z,3.90
2022-12-01T02:34:36.679Z,4.35
2022-12-01T02:37:29.461Z,4.57
2022-12-01T02:40:03.592Z,4.30
2022-12-01T02:42:50.155Z,4.88
2022-12-01T02:45:39.322Z,4.43
2022-12-01T02:48:08.996Z,4.72
2022-12-01T02:50:36.504Z,4.75
2022-12-01T02:53:04.285Z,4.82
2022-12-01T02:55:30.666Z,4.57
2022-12-01T02:57:57.014Z,5.50
2022-12-01T03:00:23.371Z,4.60
2022-12-01T03:02:51.830Z,5.18
2022-12-01T03:05:25.106Z,5.55
2022-12-01T03:07:58.433Z,5.90
2022-12-01T03:10:33.935Z,5.05
2022-12-01T03:13:12.388Z,5.88
2022-12-01T03:15:38.781Z,5.72
2022-12-01T03:18:23.725Z,5.70
2022-12-01T03:20:54.947Z,6.78
2022-12-01T03:23:23.425Z,5.65
2022-12-01T03:25:52.136Z,6.47
2022-12-01T03:28:21.974Z,7.20
2022-12-01T03:30:50.809Z,7.03
2022-12-01T03:33:20.277Z,6.88
2022-12-01T03:35:50.945Z,5.93
2022-12-01T03:38:27.722Z,6.82
2022-12-01T03:40:57.934Z,6.80
2022-12-01T03:43:27.689Z,7.07
2022-12-01T03:46:04.388Z,7.15
2022-12-01T03:48:31.033Z,6.60
2022-12-01T03:51:13.941Z,7.32
2022-12-01T03:53:49.775Z,7.35
2022-12-01T03:56:17.963Z,6.90
2022-12-01T03:58:45.593Z,7.00
2022-12-01T04:01:13.325Z,6.13
2022-12-01T04:03:39.687Z,7.07
2022-12-01T04:06:06.192Z,7.20
2022-12-01T04:08:33.891Z,6.35
2022-12-01T04:11:00.209Z,7.57
2022-12-01T04:13:26.818Z,7.97
2022-12-01T04:15:54.155Z,7.63
2022-12-01T04:18:20.829Z,7.30
2022-12-01T04:20:48.015Z,7.65
2022-12-01T04:23:34.829Z,6.75
2022-12-01T04:26:01.912Z,8.10
2022-12-01T04:28:28.314Z,7.35
2022-12-01T04:30:54.793Z,7.68
2022-12-01T04:33:21.484Z,6.78
2022-12-01T04:35:56.135Z,7.13
2022-12-01T04:38:27.418Z,8.02
2022-12-01T04:40:56.504Z,7.55
2022-12-01T04:43:22.841Z,7.55
2022-12-01T04:45:49.161Z,8.18
2022-12-01T04:48:15.515Z,6.43
2022-12-01T04:50:41.928Z,7.30
2022-12-01T04:53:08.253Z,7.30
2022-12-01T04:55:40.240Z,6.88
2022-12-01T04:58:06.732Z,8.02
2022-12-01T05:00:33.289Z,7.70
2022-12-01T05:03:00.197Z,8.35
2022-12-01T05:05:26.657Z,7.38
2022-12-01T05:07:52.989Z,7.25
2022-12-01T05:10:19.392Z,7.53
2022-12-01T05:12:51.210Z,7.80
2022-12-01T05:15:17.575Z,7.50
2022-12-01T05:17:44.044Z,8.07
2022-12-01T05:20:35.238Z,7.45
2022-12-01T05:23:05.964Z,7.82
2022-12-01T05:25:33.424Z,6.78
2022-12-01T05:27:59.809Z,7.15
2022-12-01T05:30:28.751Z,6.90
2022-12-01T05:32:55.445Z,7.88
2022-12-01T05:35:21.797Z,5.65
2022-12-01T05:37:48.222Z,7.45
2022-12-01T05:40:14.580Z,6.53
2022-12-01T05:42:40.999Z,7.05
2022-12-01T05:45:07.602Z,6.78
2022-12-01T05:47:33.948Z,6.80
2022-12-01T05:50:05.284Z,6.70
2022-12-01T05:52:33.472Z,6.75
2022-12-01T05:54:59.805Z,6.80
2022-12-01T05:57:26.146Z,7.03
2022-12-01T05:59:52.473Z,7.00
2022-12-01T06:02:18.961Z,6.28
2022-12-01T06:04:45.354Z,5.82
2022-12-01T06:07:11.710Z,6.70
2022-12-01T06:09:38.190Z,7.65
2022-12-01T06:12:04.610Z,7.43
2022-12-01T06:14:30.972Z,10.93
2022-12-01T06:16:57.301Z,8.50
2022-12-01T06:19:23.789Z,7.85
2022-12-01T06:21:50.123Z,8.30
2022-12-01T06:24:16.477Z,18.75
2022-12-01T06:26:42.810Z,7.95
2022-12-01T06:29:09.770Z,7.50
2022-12-01T06:31:36.265Z,8.00
2022-12-01T06:34:02.604Z,8.40
2022-12-01T06:36:29.014Z,8.75
2022-12-01T06:38:55.357Z,9.27
2022-12-01T06:41:21.708Z,9.27
2022-12-01T06:43:48.194Z,7.68
2022-12-01T06:46:14.629Z,7.18
2022-12-01T06:48:41.066Z,9.57
2022-12-01T06:51:07.443Z,7.63
2022-12-01T06:53:33.841Z,8.85
2022-12-01T06:56:04.496Z,7.60
2022-12-01T06:58:31.453Z,12.93
2022-12-01T07:00:59.003Z,10.80
2022-12-01T07:03:25.490Z,8.15
2022-12-01T07:05:58.827Z,7.60
2022-12-01T07:08:26.116Z,7.70
2022-12-01T07:11:03.468Z,6.93
2022-12-01T07:13:33.389Z,7.05
2022-12-01T07:16:00.754Z,7.43
2022-12-01T07:18:27.151Z,7.20
2022-12-01T07:20:53.500Z,7.88
2022-12-01T07:23:21.377Z,7.22
2022-12-01T07:25:47.719Z,7.35
2022-12-01T07:28:15.304Z,7.47
2022-12-01T07:30:41.631Z,7.50
2022-12-01T07:33:08.029Z,7.35
2022-12-01T07:35:34.415Z,6.85
2022-12-01T07:38:00.727Z,8.88
2022-12-01T07:40:27.145Z,7.45
2022-12-01T07:42:53.497Z,6.88
2022-12-01T07:45:19.881Z,7.28
2022-12-01T07:47:46.239Z,7.03
2022-12-01T07:50:12.613Z,8.32
2022-12-01T07:52:38.949Z,6.13
2022-12-01T07:55:05.506Z,7.78
2022-12-01T07:57:31.919Z,7.00
2022-12-01T07:59:58.234Z,7.25
2022-12-01T08:02:24.590Z,7.15
2022-12-01T08:04:51.093Z,6.72
2022-12-01T08:07:17.399Z,6.68
2022-12-01T08:09:44.940Z,7.60
2022-12-01T08:12:11.513Z,7.43
2022-12-01T08:14:37.876Z,6.70
2022-12-01T08:17:04.363Z,7.05
2022-12-01T08:19:30.802Z,7.75
2022-12-01T08:21:59.214Z,7.25
2022-12-01T08:24:25.723Z,6.82
2022-12-01T08:26:52.194Z,6.57
2022-12-01T08:29:20.417Z,6.30
2022-12-01T08:31:47.233Z,7.60
2022-12-01T08:34:13.600Z,7.60
2022-12-01T08:36:40.029Z,7.07
2022-12-01T08:39:09.625Z,6.40
2022-12-01T08:41:36.098Z,6.68
2022-12-01T08:44:02.477Z,7.20
2022-12-01T08:46:31.945Z,6.00
2022-12-01T08:48:58.489Z,7.18
2022-12-01T08:51:24.924Z,7.30
2022-12-01T08:53:51.268Z,6.07
2022-12-01T08:56:29.118Z,7.32
2022-12-01T08:58:55.821Z,6.32
2022-12-01T09:01:22.942Z,6.18
2022-12-01T09:06:54.861Z,6.93
2022-12-01T09:09:22.991Z,6.75
2022-12-01T09:11:49.699Z,7.00
2022-12-01T09:14:18.047Z,7.55
2022-12-01T09:16:45.366Z,6.82
2022-12-01T09:19:13.319Z,6.93
2022-12-01T09:21:39.961Z,6.70
2022-12-01T09:24:07.074Z,6.90
2022-12-01T09:26:34.103Z,6.63
2022-12-01T09:29:02.065Z,7.75
2022-12-01T09:31:28.854Z,6.97
2022-12-01T09:33:56.460Z,7.22
2022-12-01T09:36:23.051Z,6.30
2022-12-01T09:38:49.415Z,5.65
2022-12-01T09:41:24.653Z,6.00
2022-12-01T09:46:56.437Z,4.95
2022-12-01T09:49:25.025Z,5.45
2022-12-01T09:51:52.894Z,5.50
2022-12-01T09:54:19.572Z,6.13
2022-12-01T09:56:47.200Z,6.57
2022-12-01T09:59:17.835Z,5.68
2022-12-01T10:01:46.529Z,5.50
2022-12-01T10:04:28.295Z,5.45
2022-12-01T10:07:00.222Z,5.40
2022-12-01T10:09:26.735Z,5.82
2022-12-01T10:11:58.109Z,5.20
2022-12-01T10:14:24.568Z,5.20
2022-12-01T10:17:14.389Z,5.47
2022-12-01T10:19:49.971Z,5.45
2022-12-01T10:22:16.420Z,5.07
2022-12-01T10:24:45.797Z,5.18
2022-12-01T10:27:31.052Z,5.40
2022-12-01T10:30:05.457Z,5.72
2022-12-01T10:32:50.529Z,6.13
2022-12-01T10:35:18.426Z,5.80
2022-12-01T10:37:45.791Z,5.00
2022-12-01T10:40:12.978Z,5.10
2022-12-01T10:42:46.935Z,4.97
2022-12-01T10:45:16.575Z,5.10
2022-12-01T10:48:01.612Z,4.95
2022-12-01T10:50:28.332Z,4.65
2022-12-01T10:52:54.692Z,4.63
2022-12-01T10:55:46.461Z,5.07
2022-12-01T10:58:15.439Z,5.63
2022-12-01T11:00:59.091Z,4.78
2022-12-01T11:03:29.861Z,4.97
2022-12-01T11:05:58.360Z,4.68
2022-12-01T11:08:28.284Z,4.43
2022-12-01T11:10:55.362Z,5.03
2022-12-01T11:13:28.577Z,4.57
2022-12-01T11:15:56.097Z,4.85
2022-12-01T11:18:22.485Z,5.22
2022-12-01T11:21:05.827Z,5.25
2022-12-01T11:23:35.246Z,4.32
2022-12-01T11:26:22.392Z,4.55
2022-12-01T11:28:57.172Z,4.40
2022-12-01T11:31:34.812Z,5.25
2022-12-01T11:34:01.301Z,5.28
2022-12-01T11:36:38.301Z,4.93
2022-12-01T11:39:04.672Z,5.25
2022-12-01T11:41:33.017Z,5.25
2022-12-01T11:44:06.257Z,5.50
2022-12-01T11:46:46.283Z,5.72
2022-12-01T11:49:19.452Z,5.30
2022-12-01T11:51:45.952Z,5.82
2022-12-01T11:54:21.623Z,5.53
2022-12-01T11:56:56.123Z,6.18
2022-12-01T11:59:35.179Z,5.60
2022-12-01T12:02:24.878Z,5.18
2022-12-01T12:05:09.937Z,5.65
2022-12-01T12:07:44.471Z,5.47
2022-12-01T12:10:29.357Z,5.40
2022-12-01T12:13:13.773Z,4.40
2022-12-01T12:18:42.785Z,4.30
2022-12-01T12:21:20.265Z,5.45
2022-12-01T12:24:18.328Z,4.25
2022-12-01T12:26:44.748Z,4.80
2022-12-01T12:29:26.433Z,4.68
2022-12-01T12:32:11.207Z,4.57
2022-12-01T12:34:56.413Z,4.63
2022-12-01T12:37:28.844Z,4.00
2022-12-01T12:40:13.934Z,5.00
2022-12-01T12:42:40.246Z,4.45
2022-12-01T12:45:15.027Z,4.45
2022-12-01T12:48:00.130Z,4.38
2022-12-01T12:50:45.156Z,4.82
2022-12-01T12:53:17.947Z,4.50
2022-12-01T12:55:57.963Z,4.88
2022-12-01T12:58:30.287Z,4.73
2022-12-01T13:01:06.614Z,5.03
2022-12-01T13:03:49.313Z,5.18
2022-12-01T13:06:23.240Z,4.85
2022-12-01T13:08:56.372Z,5.07
2022-12-01T13:11:28.853Z,4.55
2022-12-01T13:14:01.680Z,4.90
2022-12-01T13:16:34.344Z,4.93
2022-12-01T13:19:05.037Z,4.65
2022-12-01T13:21:36.558Z,4.93
2022-12-01T13:24:03.527Z,5.00
2022-12-01T13:26:30.324Z,4.35
2022-12-01T13:28:57.342Z,4.68
2022-12-01T13:31:23.926Z,4.90
2022-12-01T13:33:55.472Z,4.57
2022-12-01T13:36:45.745Z,4.30
2022-12-01T13:39:25.399Z,4.00
2022-12-01T13:42:03.020Z,4.80
2022-12-01T13:44:37.152Z,4.68
2022-12-01T13:47:09.756Z,4.53
2022-12-01T13:49:42.559Z,4.70
2022-12-01T13:52:21.058Z,4.40
2022-12-01T13:55:06.084Z,4.35
2022-12-01T13:57:33.784Z,3.95
2022-12-01T14:00:00.099Z,4.03
2022-12-01T14:02:27.961Z,4.07
2022-12-01T14:04:54.422Z,4.22
2022-12-01T14:07:36.903Z,4.07
2022-12-01T14:10:09.636Z,3.85
2022-12-01T14:12:37.820Z,4.20
2022-12-01T14:15:19.479Z,4.03
2022-12-01T14:17:45.995Z,4.47
2022-12-01T14:20:20.521Z,4.60
2022-12-01T14:22:49.323Z,4.55
2022-12-01T14:25:22.547Z,5.18
2022-12-01T14:27:51.464Z,4.70
2022-12-01T14:30:36.740Z,5.40
2022-12-01T14:33:21.934Z,5.85
2022-12-01T14:35:48.306Z,4.88
2022-12-01T14:38:14.653Z,5.15
2022-12-01T14:40:41.049Z,5.07
2022-12-01T14:43:31.236Z,5.10
2022-12-01T14:46:06.341Z,5.05
2022-12-01T14:48:35.987Z,4.88
2022-12-01T14:51:20.955Z,5.07
2022-12-01T14:53:48.502Z,5.13
2022-12-01T14:56:17.427Z,5.25
2022-12-01T14:58:56.122Z,5.22
2022-12-01T15:01:23.399Z,5.22
2022-12-01T15:03:51.337Z,5.00
2022-12-01T15:06:18.992Z,5.10
2022-12-01T15:09:03.933Z,5.80
2022-12-01T15:11:31.038Z,5.05
2022-12-01T15:13:57.653Z,5.40
2022-12-01T15:16:25.972Z,5.47
2022-12-01T15:18:55.879Z,5.32
2022-12-01T15:21:31.864Z,5.63
2022-12-01T15:24:16.845Z,5.20
2022-12-01T15:26:47.848Z,5.50
2022-12-01T15:29:14.600Z,5.65
2022-12-01T15:31:43.733Z,5.88
2022-12-01T15:34:14.378Z,5.80
2022-12-01T15:36:40.851Z,6.03
2022-12-01T15:39:11.467Z,5.15
2022-12-01T15:41:39.816Z,6.15
2022-12-01T15:44:17.583Z,6.55
2022-12-01T15:46:44.274Z,5.20
2022-12-01T15:49:18.254Z,5.45
2022-12-01T15:51:45.188Z,5.38
2022-12-01T15:54:18.839Z,6.07
2022-12-01T15:56:45.369Z,5.30
2022-12-01T15:59:11.671Z,5.05
2022-12-01T16:01:39.176Z,5.25
2022-12-01T16:04:12.823Z,5.18
2022-12-01T16:06:39.843Z,5.82
2022-12-01T16:09:23.575Z,6.28
2022-12-01T16:12:08.455Z,5.35
2022-12-01T16:14:35.489Z,5.50
2022-12-01T16:17:02.190Z,5.22
2022-12-01T16:19:29.860Z,5.38
2022-12-01T16:22:01.235Z,5.18
2022-12-01T16:24:30.004Z,4.97
2022-12-01T16:26:59.556Z,5.25
2022-12-01T16:29:27.011Z,5.20
2022-12-01T16:32:21.969Z,4.45
2022-12-01T16:34:47.183Z,5.28
2022-12-01T16:37:14.279Z,4.93
2022-12-01T16:39:40.703Z,6.03
2022-12-01T16:42:07.115Z,5.15
2022-12-01T16:44:33.490Z,5.40
2022-12-01T16:46:59.876Z,4.82
2022-12-01T16:49:26.229Z,5.93
2022-12-01T16:51:57.066Z,4.93
2022-12-01T16:54:23.989Z,4.78
2022-12-01T16:56:50.983Z,5.00
2022-12-01T16:59:17.305Z,4.15
2022-12-01T17:01:43.811Z,4.70
2022-12-01T17:04:10.198Z,4.85
2022-12-01T17:06:38.349Z,4.68
2022-12-01T17:09:05.010Z,5.35
2022-12-01T17:11:31.987Z,4.45
2022-12-01T17:13:58.408Z,4.30
2022-12-01T17:16:24.819Z,3.92
2022-12-01T17:18:51.188Z,4.60
2022-12-01T17:21:17.508Z,4.20
2022-12-01T17:23:43.868Z,4.22
2022-12-01T17:26:11.990Z,4.05
2022-12-01T17:28:39.165Z,4.10
2022-12-01T17:31:06.114Z,3.95
2022-12-01T17:33:34.340Z,4.78
2022-12-01T17:36:01.552Z,4.55
2022-12-01T17:38:27.982Z,4.22
2022-12-01T17:41:00.883Z,4.68
2022-12-01T17:43:27.681Z,4.18
2022-12-01T17:45:54.107Z,4.35
2022-12-01T17:48:20.566Z,4.35
2022-12-01T17:50:47.015Z,5.15
2022-12-01T17:53:13.422Z,4.68
2022-12-01T17:55:40.004Z,4.60
2022-12-01T17:58:06.564Z,4.43
2022-12-01T18:00:33.031Z,4.88
2022-12-01T18:02:59.725Z,5.05
2022-12-01T18:05:26.330Z,4.75
2022-12-01T18:07:52.865Z,5.45
2022-12-01T18:10:19.315Z,5.47
2022-12-01T18:12:45.736Z,4.70
2022-12-01T18:15:12.609Z,5.05
2022-12-01T18:17:39.597Z,4.60
2022-12-01T18:20:06.486Z,5.13
2022-12-01T18:22:32.939Z,4.63
2022-12-01T18:24:59.367Z,4.97
2022-12-01T18:27:25.850Z,4.78
2022-12-01T18:29:52.398Z,4.78
2022-12-01T18:32:21.750Z,4.65
2022-12-01T18:34:48.572Z,5.03
2022-12-01T18:37:15.369Z,4.40
2022-12-01T18:39:41.899Z,4.45
2022-12-01T18:42:08.400Z,4.35
2022-12-01T18:44:34.878Z,5.00
2022-12-01T18:47:02.727Z,4.63
2022-12-01T18:49:32.488Z,4.72
2022-12-01T18:52:00.306Z,5.10
2022-12-01T18:54:27.021Z,4.93
2022-12-01T18:56:54.989Z,4.60
2022-12-01T18:59:21.487Z,4.57
2022-12-01T19:01:48.566Z,3.95
2022-12-01T19:04:15.801Z,4.10
2022-12-01T19:06:42.700Z,4.18
2022-12-01T19:09:10.389Z,4.15
2022-12-01T19:11:37.423Z,3.85
2022-12-01T19:14:03.992Z,3.80
2022-12-01T19:16:33.399Z,4.60
2022-12-01T19:19:00.710Z,3.63
2022-12-01T19:21:27.067Z,4.00
2022-12-01T19:23:53.667Z,3.95
2022-12-01T19:26:22.057Z,3.33
2022-12-01T19:28:48.973Z,3.55
2022-12-01T19:31:19.862Z,3.63
2022-12-01T19:36:13.875Z,3.80
2022-12-01T19:38:40.527Z,4.43
2022-12-01T19:41:07.357Z,4.32
2022-12-01T19:43:34.507Z,4.10
2022-12-01T19:46:11.509Z,4.18
2022-12-01T19:48:38.356Z,4.00
2022-12-01T19:51:06.429Z,4.00
2022-12-01T19:53:33.995Z,4.20
2022-12-01T19:56:04.781Z,3.72
2022-12-01T19:58:34.611Z,4.13
2022-12-01T20:01:07.545Z,4.05
2022-12-01T20:03:34.054Z,4.50
2022-12-01T20:06:08.335Z,4.45
2022-12-01T20:08:36.047Z,4.65
2022-12-01T20:11:04.205Z,5.00
2022-12-01T20:13:34.447Z,4.75
2022-12-01T20:16:02.142Z,5.82
2022-12-01T20:18:28.521Z,4.88
2022-12-01T20:21:05.393Z,5.10
2022-12-01T20:23:31.746Z,5.32
2022-12-01T20:25:58.908Z,4.97
2022-12-01T20:28:25.307Z,5.93
2022-12-01T20:30:51.722Z,5.40
2022-12-01T20:33:18.216Z,6.10
2022-12-01T20:35:44.581Z,5.60
2022-12-01T20:38:10.931Z,5.57
2022-12-01T20:40:37.295Z,5.00
2022-12-01T20:43:03.678Z,5.78
2022-12-01T20:45:33.254Z,5.75
2022-12-01T20:47:59.771Z,6.80
2022-12-01T20:50:26.166Z,5.63
2022-12-01T20:52:52.540Z,6.43
2022-12-01T20:55:18.925Z,6.00
2022-12-01T20:57:45.852Z,6.22
2022-12-01T21:00:13.612Z,6.38
2022-12-01T21:02:42.462Z,6.90
2022-12-01T21:05:09.022Z,7.18
2022-12-01T21:07:35.438Z,7.18
2022-12-01T21:10:03.131Z,6.13
2022-12-01T21:12:48.104Z,7.18
2022-12-01T21:15:22.551Z,6.22
2022-12-01T21:17:57.133Z,6.97
2022-12-01T21:20:29.784Z,6.78
2022-12-01T21:23:01.441Z,6.28
2022-12-01T21:25:27.860Z,6.43
2022-12-01T21:27:56.455Z,6.10
2022-12-01T21:30:26.049Z,6.57
2022-12-01T21:32:53.372Z,7.38
2022-12-01T21:35:20.995Z,7.07
2022-12-01T21:37:47.991Z,7.47
2022-12-01T21:40:16.286Z,6.65
2022-12-01T21:42:42.826Z,7.07
2022-12-01T21:45:28.056Z,6.97
2022-12-01T21:47:58.107Z,6.65
2022-12-01T21:50:25.256Z,6.90
2022-12-01T21:52:51.612Z,7.22
2022-12-01T21:55:17.937Z,7.15
2022-12-01T21:57:53.675Z,6.90
2022-12-01T22:00:20.187Z,7.35
2022-12-01T22:02:50.048Z,7.60
2022-12-01T22:05:36.757Z,7.63
2022-12-01T22:08:06.164Z,7.40
2022-12-01T22:10:51.234Z,6.35
2022-12-01T22:13:18.510Z,7.18
2022-12-01T22:15:47.387Z,7.18
2022-12-01T22:18:22.767Z,6.95
2022-12-01T22:20:49.115Z,7.22
2022-12-01T22:23:15.449Z,7.38
2022-12-01T22:25:42.446Z,7.15
2022-12-01T22:28:17.987Z,7.28
2022-12-01T22:30:44.396Z,6.72
2022-12-01T22:33:14.459Z,7.55
2022-12-01T22:35:43.385Z,7.20
2022-12-01T22:38:12.879Z,7.60
2022-12-01T22:40:42.803Z,6.97
2022-12-01T22:43:18.326Z,7.53
2022-12-01T22:45:52.624Z,7.05
2022-12-01T22:48:31.609Z,6.63
2022-12-01T22:51:02.117Z,7.38
2022-12-01T22:53:30.340Z,7.57
2022-12-01T22:56:00.146Z,7.50
2022-12-01T22:58:34.918Z,7.10
2022-12-01T23:01:02.575Z,7.30
2022-12-01T23:03:29.008Z,7.40
2022-12-01T23:05:57.299Z,7.20
2022-12-01T23:08:24.208Z,7.55
2022-12-01T23:10:50.893Z,8.00
2022-12-01T23:13:21.939Z,7.00
2022-12-01T23:15:50.621Z,8.10
2022-12-01T23:18:21.126Z,7.43
2022-12-01T23:20:48.828Z,6.78
2022-12-01T23:23:19.379Z,7.10
2022-12-01T23:25:46.716Z,7.70
2022-12-01T23:28:13.642Z,6.95
2022-12-01T23:30:40.833Z,7.18
2022-12-01T23:33:16.323Z,7.55
2022-12-01T23:35:47.297Z,7.55
2022-12-01T23:38:19.587Z,7.20
2022-12-01T23:40:45.936Z,7.47
2022-12-01T23:43:12.231Z,7.90
2022-12-01T23:45:38.805Z,7.22
2022-12-01T23:48:10.924Z,8.43
2022-12-01T23:50:37.591Z,6.78
2022-12-01T23:53:03.942Z,7.90
2022-12-01T23:55:31.086Z,7.38
2022-12-01T23:57:58.329Z,8.15
